Time;durP1;ratioP1;P1;durP2;ratioP2;P2;SDS_P1;SDS_P2;PMS_P1;PMS_P2;Temp;Humidity;BMP_temperature;BMP_pressure;BME280_temperature;BME280_humidity;BME280_pressure;Samples;Min_cycle;Max_cycle;Signal;HPM_P1;HPM_P2
2023/10/17 00:01:50;;;;;;;0.33;0.33;;;;;;;22.01;39.21;100153.72;7397493;19;20039;-53
2023/10/17 00:06:46;;;;;;;0.40;0.40;;;;;;;22.43;38.81;100146.84;7396950;19;20014;-53
2023/10/17 00:09:21;;;;;;;0.45;0.45;;;;;;;22.53;38.47;100139.38;7396762;19;20018;-57
2023/10/17 00:14:35;;;;;;;2.65;1.65;;;;;;;21.91;39.49;100140.53;7401166;19;20721;-56
2023/10/17 00:17:05;;;;;;;0.73;0.73;;;;;;;22.47;39.27;100138.00;7397125;19;20025;-57
2023/10/17 00:19:31;;;;;;;1.15;1.08;;;;;;;22.60;38.94;100138.75;7397257;19;20471;-57
2023/10/17 00:22:09;;;;;;;3.70;0.80;;;;;;;22.74;38.68;100138.69;7398133;19;20054;-57
2023/10/17 00:24:35;;;;;;;0.40;0.40;;;;;;;22.98;38.29;100132.63;7396103;19;20477;-57
2023/10/17 00:27:03;;;;;;;1.40;0.63;;;;;;;22.86;38.69;100131.41;7394786;19;20031;-58
2023/10/17 00:29:31;;;;;;;0.47;0.47;;;;;;;22.63;38.58;100126.25;7395289;19;20023;-57
2023/10/17 00:31:57;;;;;;;0.68;0.60;;;;;;;22.77;39.03;100135.50;7395543;19;20020;-57
2023/10/17 00:34:24;;;;;;;0.30;0.30;;;;;;;22.80;38.88;100127.94;7394324;19;20024;-57
2023/10/17 00:36:52;;;;;;;0.73;0.73;;;;;;;22.63;39.04;100119.06;7395010;19;20354;-58
2023/10/17 00:39:31;;;;;;;0.50;0.50;;;;;;;22.78;39.05;100120.00;7394877;19;20010;-57
2023/10/17 00:44:44;;;;;;;0.82;0.77;;;;;;;23.20;38.10;100089.44;7394133;19;20006;-57
2023/10/17 00:47:22;;;;;;;0.47;0.47;;;;;;;22.54;38.93;100089.78;7395549;19;20007;-57
2023/10/17 00:49:50;;;;;;;0.38;0.38;;;;;;;22.02;39.90;100084.34;7390264;19;20019;-57
2023/10/17 00:52:24;;;;;;;0.38;0.38;;;;;;;22.20;40.07;100086.22;7398255;19;20024;-57
2023/10/17 00:54:55;;;;;;;0.40;0.40;;;;;;;23.74;38.11;100089.22;7395235;19;20022;-57
2023/10/17 00:57:26;;;;;;;0.32;0.32;;;;;;;24.27;37.41;100074.44;7395189;19;20014;-56
2023/10/17 00:59:55;;;;;;;0.28;0.28;;;;;;;22.43;39.36;100084.41;7393646;19;20022;-57
2023/10/17 01:02:23;;;;;;;0.40;0.40;;;;;;;23.17;39.28;100082.03;7395625;19;20011;-57
2023/10/17 01:04:51;;;;;;;0.30;0.30;;;;;;;23.60;38.72;100075.69;7394980;19;20010;-57
2023/10/17 01:07:31;;;;;;;0.40;0.40;;;;;;;23.92;38.45;100073.94;7393611;19;20020;-57
2023/10/17 01:10:17;;;;;;;0.40;0.40;;;;;;;23.91;38.36;100071.63;7393494;19;20014;-56
2023/10/17 01:13:00;;;;;;;0.30;0.30;;;;;;;24.18;38.29;100061.53;7396861;19;20007;-56
2023/10/17 01:15:29;;;;;;;0.20;0.20;;;;;;;24.42;37.91;100061.00;7394868;19;20027;-57
2023/10/17 01:18:03;;;;;;;0.22;0.22;;;;;;;23.94;37.92;100065.59;7393028;19;20352;-57
2023/10/17 01:20:34;;;;;;;0.30;0.30;;;;;;;23.66;38.23;100064.91;7394875;19;20079;-57
2023/10/17 01:23:01;;;;;;;0.43;0.43;;;;;;;23.42;38.93;100071.03;7399458;19;20424;-53
2023/10/17 01:25:34;;;;;;;0.30;0.30;;;;;;;23.62;38.67;100065.28;7392726;19;20022;-57
2023/10/17 01:28:00;;;;;;;0.20;0.20;;;;;;;24.44;38.17;100061.22;7393056;19;20043;-56
2023/10/17 01:30:32;;;;;;;0.40;0.40;;;;;;;24.20;38.09;100061.72;7393661;19;20009;-57
2023/10/17 01:32:59;;;;;;;0.40;0.40;;;;;;;24.01;38.64;100056.34;7398692;19;20014;-53
2023/10/17 01:35:25;;;;;;;0.32;0.32;;;;;;;23.71;38.60;100061.16;7392363;19;20011;-57
2023/10/17 01:37:55;;;;;;;1.95;0.95;;;;;;;23.55;38.90;100065.22;7396623;19;20015;-53
2023/10/17 01:43:14;;;;;;;0.47;0.47;;;;;;;23.69;38.78;100067.38;7398338;19;20013;-52
2023/10/17 01:45:42;;;;;;;0.50;0.50;;;;;;;23.62;38.91;100065.28;7393794;19;20028;-57
2023/10/17 01:48:11;;;;;;;0.20;0.20;;;;;;;22.97;39.99;100066.56;7394447;19;20338;-53
2023/10/17 01:50:37;;;;;;;0.20;0.20;;;;;;;24.18;38.71;100052.22;7392200;19;20458;-53
2023/10/17 01:53:18;;;;;;;0.30;0.30;;;;;;;24.12;38.70;100060.19;7400320;19;20011;-57
2023/10/17 01:56:02;;;;;;;0.30;0.30;;;;;;;24.15;38.44;100053.38;7393908;19;20453;-62
2023/10/17 01:59:04;;;;;;;0.30;0.30;;;;;;;24.77;37.97;100059.38;7396472;19;20007;-52
2023/10/17 02:01:31;;;;;;;0.43;0.43;;;;;;;24.94;37.75;100059.53;7391690;19;20027;-52
2023/10/17 02:10:28;;;;;;;0.30;0.30;;;;;;;24.41;38.57;100047.31;7393496;19;20006;-50
2023/10/17 02:12:54;;;;;;;0.10;0.10;;;;;;;25.19;37.59;100046.19;7396873;19;20501;-50
2023/10/17 02:15:23;;;;;;;0.45;0.45;;;;;;;26.63;36.05;100043.47;7393134;19;20013;-51
2023/10/17 02:17:51;;;;;;;0.30;0.30;;;;;;;25.12;37.34;100038.41;7395068;19;20015;-55
2023/10/17 02:20:21;;;;;;;0.38;0.38;;;;;;;24.14;38.26;100035.53;7393222;19;20010;-55
2023/10/17 02:22:49;;;;;;;0.25;0.25;;;;;;;24.20;38.68;100036.09;7398751;19;20010;-55
2023/10/17 02:25:20;;;;;;;0.32;0.32;;;;;;;24.08;38.68;100032.09;7394634;19;20050;-55
2023/10/17 02:27:47;;;;;;;0.20;0.20;;;;;;;23.88;38.80;100047.94;7393361;19;20011;-55
2023/10/17 02:30:14;;;;;;;0.70;0.70;;;;;;;23.49;39.50;100039.06;7392727;19;20038;-56
2023/10/17 02:32:44;;;;;;;0.70;0.70;;;;;;;23.53;39.12;100031.69;7397235;19;20016;-56
2023/10/17 02:35:17;;;;;;;0.20;0.20;;;;;;;24.05;39.07;100028.31;7392694;19;20010;-56
2023/10/17 02:37:47;;;;;;;0.43;0.43;;;;;;;24.39;38.41;100027.19;7392550;19;20018;-56
2023/10/17 02:40:20;;;;;;;0.35;0.35;;;;;;;24.80;37.99;100027.63;7391139;19;20018;-56
2023/10/17 02:42:47;;;;;;;0.20;0.20;;;;;;;25.05;37.55;100018.50;7390494;19;20018;-57
2023/10/17 02:45:24;;;;;;;0.30;0.30;;;;;;;25.17;37.37;100020.38;7393346;19;20010;-56
2023/10/17 02:47:56;;;;;;;0.65;0.55;;;;;;;24.40;38.19;100017.34;7392110;19;20038;-56
2023/10/17 02:52:59;;;;;;;0.30;0.30;;;;;;;23.88;39.16;100016.66;7395550;19;20010;-56
2023/10/17 02:55:26;;;;;;;0.30;0.30;;;;;;;23.92;38.98;100019.88;7390667;19;20014;-56
2023/10/17 02:57:52;;;;;;;1.58;0.55;;;;;;;24.49;38.35;100022.50;7390342;19;20035;-56
2023/10/17 03:00:23;;;;;;;0.40;0.40;;;;;;;23.70;39.07;100026.25;7392414;19;20070;-56
2023/10/17 03:02:55;;;;;;;0.30;0.30;;;;;;;24.14;38.77;100029.06;7394900;19;20043;-56
2023/10/17 03:05:22;;;;;;;0.63;0.63;;;;;;;24.52;38.28;100018.47;7391497;19;20223;-56
2023/10/17 03:07:52;;;;;;;3.92;0.30;;;;;;;23.46;39.60;100029.56;7392867;19;20011;-57
2023/10/17 03:10:37;;;;;;;0.57;0.57;;;;;;;23.66;39.65;100020.19;7389655;19;20043;-56
2023/10/17 03:15:53;;;;;;;0.30;0.30;;;;;;;24.26;39.33;100013.13;7396274;19;20462;-57
2023/10/17 03:18:20;;;;;;;0.22;0.22;;;;;;;24.91;38.99;100009.38;7396766;19;20014;-56
2023/10/17 03:20:53;;;;;;;2.08;0.30;;;;;;;25.37;38.86;100004.34;7397179;19;20006;-56
2023/10/17 03:23:28;;;;;;;0.50;0.50;;;;;;;25.26;39.05;99996.97;7400704;19;20006;-56
2023/10/17 03:26:00;;;;;;;0.63;0.63;;;;;;;25.40;39.26;99992.53;7395636;19;20359;-56
2023/10/17 03:28:29;;;;;;;0.30;0.30;;;;;;;25.77;39.62;99993.00;7396332;19;20470;-56
2023/10/17 03:30:55;;;;;;;0.55;0.47;;;;;;;27.24;38.54;99991.47;7396173;19;20462;-56
2023/10/17 03:33:27;;;;;;;0.15;0.15;;;;;;;28.36;37.32;99997.84;7401418;19;20017;-56
2023/10/17 03:36:04;;;;;;;0.45;0.45;;;;;;;29.01;36.66;99994.25;7396494;19;20024;-56
2023/10/17 03:38:33;;;;;;;0.30;0.30;;;;;;;27.16;38.86;99999.38;7399467;19;20141;-56
2023/10/17 03:41:06;;;;;;;0.35;0.35;;;;;;;26.19;40.39;99988.19;7397201;19;20018;-56
2023/10/17 03:43:39;;;;;;;1.23;0.45;;;;;;;27.42;39.29;99988.03;7400915;19;20018;-56
2023/10/17 03:46:05;;;;;;;0.40;0.40;;;;;;;28.04;38.33;99989.53;7396636;19;20021;-57
2023/10/17 03:48:49;;;;;;;1.73;0.90;;;;;;;28.06;38.64;99991.81;7397640;19;20010;-56
2023/10/17 03:51:26;;;;;;;0.52;0.52;;;;;;;28.00;38.76;99994.94;7398877;19;20037;-57
2023/10/17 03:53:53;;;;;;;11.95;0.75;;;;;;;28.09;38.48;99991.34;7398306;19;20100;-56
2023/10/17 03:56:26;;;;;;;1.17;0.80;;;;;;;27.18;39.31;99979.53;7397709;19;20022;-56
2023/10/17 04:01:18;;;;;;;1.00;0.95;;;;;;;27.59;39.06;99979.41;7397755;19;20014;-57
2023/10/17 04:03:53;;;;;;;0.43;0.22;;;;;;;26.80;39.83;99980.69;7397842;19;20017;-56
2023/10/17 04:11:53;;;;;;;0.22;0.20;;;;;;;26.81;39.87;99973.59;7397937;19;20481;-56
2023/10/17 04:14:21;;;;;;;1.25;1.20;;;;;;;26.77;40.20;99976.13;7400738;19;20019;-56
2023/10/17 04:16:48;;;;;;;0.90;0.60;;;;;;;27.94;38.76;99968.63;7401779;19;20015;-56
2023/10/17 04:19:17;;;;;;;0.52;0.40;;;;;;;28.27;38.13;99972.75;7396833;19;20036;-56
2023/10/17 04:21:46;;;;;;;0.90;0.90;;;;;;;28.20;38.03;99970.75;7397253;19;20066;-56
2023/10/17 04:24:24;;;;;;;2.17;0.63;;;;;;;28.40;38.17;99957.28;7395284;19;20017;-56
2023/10/17 04:26:51;;;;;;;0.65;0.65;;;;;;;28.47;37.83;99967.84;7396936;19;20014;-56
2023/10/17 04:29:21;;;;;;;1.45;0.60;;;;;;;28.30;38.14;99965.84;7395748;19;20074;-56
2023/10/17 04:31:55;;;;;;;0.15;0.15;;;;;;;28.31;38.10;99967.34;7397651;19;20024;-56
2023/10/17 04:34:21;;;;;;;1.38;1.17;;;;;;;28.32;38.10;99962.38;7395356;19;20011;-56
2023/10/17 04:36:51;;;;;;;0.25;0.25;;;;;;;28.36;37.53;99969.19;7395797;19;20136;-56
2023/10/17 04:44:25;;;;;;;0.70;0.38;;;;;;;28.14;37.70;99972.38;7397438;19;20022;-56
2023/10/17 04:49:31;;;;;;;0.95;0.73;;;;;;;28.11;37.46;99960.00;7395353;19;20018;-56
2023/10/17 04:52:08;;;;;;;0.55;0.55;;;;;;;28.61;36.63;99959.63;7397248;19;20014;-56
2023/10/17 04:57:06;;;;;;;0.70;0.70;;;;;;;28.34;36.52;99957.56;7395469;19;20012;-56
2023/10/17 06:19:21;;;;;;;7.47;0.52;;;;;;;31.23;31.49;99945.66;7393154;19;20474;-56
2023/10/17 06:24:45;;;;;;;0.40;0.40;;;;;;;31.14;31.51;99940.75;7392545;19;20015;-56
2023/10/17 06:32:48;;;;;;;0.40;0.40;;;;;;;31.12;31.61;99946.34;7395147;19;20018;-56
2023/10/17 06:35:20;;;;;;;1.17;0.35;;;;;;;31.14;31.08;99946.50;7391005;19;20394;-57
2023/10/17 06:37:49;;;;;;;2.78;0.82;;;;;;;30.97;31.55;99946.75;7393101;19;20026;-57
2023/10/17 06:40:16;;;;;;;3.30;0.73;;;;;;;29.13;32.95;99947.16;7392668;19;20023;-56
2023/10/17 06:42:59;;;;;;;1.27;0.77;;;;;;;28.64;33.82;99947.72;7394523;19;20030;-56
2023/10/17 06:45:27;;;;;;;0.50;0.25;;;;;;;28.53;33.82;99951.88;7393196;19;20010;-56
2023/10/17 06:47:57;;;;;;;0.25;0.25;;;;;;;28.04;34.40;99940.09;7394851;19;20011;-56
2023/10/17 06:53:27;;;;;;;0.30;0.30;;;;;;;27.39;35.16;99954.13;7398912;19;20025;-56
2023/10/17 06:55:58;;;;;;;;;;;;;;;27.54;34.87;99953.94;7400353;19;20014;-56
2023/10/17 06:58:27;;;;;;;0.40;0.40;;;;;;;27.28;35.26;99955.38;7404145;19;19926;-56
2023/10/17 07:00:56;;;;;;;0.30;0.30;;;;;;;27.12;35.75;99959.00;7402613;19;20099;-56
2023/10/17 07:03:25;;;;;;;0.25;0.25;;;;;;;27.62;35.15;99960.31;7402083;19;20021;-57
2023/10/17 07:05:55;;;;;;;0.50;0.50;;;;;;;28.03;35.10;99955.75;7401640;19;20011;-57
2023/10/17 07:08:21;;;;;;;1.15;1.05;;;;;;;28.32;35.00;99963.13;7402490;19;20006;-57
2023/10/17 07:11:09;;;;;;;0.50;0.28;;;;;;;27.76;35.33;99959.34;7399394;19;20007;-57
2023/10/17 07:16:42;;;;;;;0.20;0.20;;;;;;;26.83;36.43;99953.75;7398574;19;20015;-56
2023/10/17 07:24:24;;;;;;;0.95;0.68;;;;;;;28.49;35.21;99962.28;7398181;19;20052;-56
2023/10/17 07:26:54;;;;;;;1.55;0.50;;;;;;;27.44;35.82;99967.44;7397843;19;20014;-56
2023/10/17 07:29:23;;;;;;;0.22;0.22;;;;;;;26.88;36.89;99964.19;7396398;19;20013;-57
2023/10/17 07:31:52;;;;;;;1.38;0.88;;;;;;;26.70;37.58;99971.22;7399502;19;20010;-57
2023/10/17 07:34:22;;;;;;;0.10;0.10;;;;;;;26.65;37.38;99966.50;7397996;19;20007;-57
2023/10/17 07:36:58;;;;;;;0.30;0.30;;;;;;;26.77;37.16;99961.84;7396981;19;20018;-57
2023/10/17 07:39:29;;;;;;;0.20;0.20;;;;;;;27.43;36.92;99951.59;7400837;19;20020;-56
2023/10/17 07:41:55;;;;;;;;;;;;;;;28.12;36.44;99967.25;7400076;19;20082;-56
2023/10/17 07:44:26;;;;;;;0.70;0.65;;;;;;;28.40;36.04;99951.53;7397995;19;19925;-56
2023/10/17 07:47:33;;;;;;;1.38;0.73;;;;;;;28.05;36.25;99959.53;7397745;19;20023;-57
2023/10/17 07:49:47;;;;;;;0.10;0.10;;;;;;;28.80;35.69;99957.56;7396415;19;20332;-57
2023/10/17 07:52:17;;;;;;;0.17;0.17;;;;;;;28.09;36.46;99968.44;7399809;19;20011;-57
2023/10/17 07:55:17;;;;;;;0.40;0.40;;;;;;;28.11;36.71;99967.88;7396851;19;20056;-57
2023/10/17 07:57:44;;;;;;;0.28;0.28;;;;;;;27.72;37.25;99976.19;7395819;19;20010;-57
2023/10/17 08:00:26;;;;;;;1.02;1.00;;;;;;;27.42;37.39;99965.16;7396277;19;20014;-57
2023/10/17 08:03:00;;;;;;;1.17;0.63;;;;;;;27.21;37.93;99969.75;7399383;19;20015;-57
2023/10/17 08:05:36;;;;;;;0.68;0.52;;;;;;;27.42;38.13;99972.97;7397561;19;20019;-58
2023/10/17 08:08:13;;;;;;;0.22;0.10;;;;;;;27.46;38.32;99971.19;7399606;19;20044;-58
2023/10/17 08:10:39;;;;;;;0.10;0.10;;;;;;;27.48;37.74;99973.47;7395519;19;20014;-57
2023/10/17 08:13:08;;;;;;;0.50;0.50;;;;;;;27.61;38.27;99976.00;7400661;19;20081;-57
2023/10/17 08:15:52;;;;;;;0.30;0.22;;;;;;;27.74;38.00;99962.06;7396597;19;20014;-57
2023/10/17 08:18:22;;;;;;;3.22;0.30;;;;;;;28.88;37.31;99958.19;7397764;19;20056;-57
2023/10/17 08:23:34;;;;;;;2.30;0.65;;;;;;;29.29;36.30;99959.13;7401190;19;20010;-57
2023/10/17 08:26:03;;;;;;;0.47;0.47;;;;;;;29.80;35.89;99955.03;7395531;19;20042;-57
2023/10/17 08:28:50;;;;;;;0.38;0.38;;;;;;;30.18;35.64;99957.00;7395484;19;20009;-57
2023/10/17 08:39:31;;;;;;;0.15;0.15;;;;;;;30.87;34.85;99943.22;7400593;19;20077;-57
2023/10/17 08:42:12;;;;;;;0.10;0.10;;;;;;;30.98;34.33;99945.41;7397615;19;20014;-57
2023/10/17 08:44:41;;;;;;;0.65;0.65;;;;;;;31.92;33.69;99944.41;7395411;19;20474;-57
2023/10/17 08:47:11;;;;;;;0.93;0.32;;;;;;;32.15;33.50;99941.56;7394792;19;20010;-57
2023/10/17 08:49:38;;;;;;;0.47;0.30;;;;;;;32.06;33.79;99943.19;7394310;19;20015;-57
2023/10/17 08:52:06;;;;;;;2.40;0.68;;;;;;;31.82;33.46;99940.84;7396121;19;20347;-57
2023/10/17 08:54:32;;;;;;;3.28;0.75;;;;;;;31.22;34.20;99940.50;7399209;19;20010;-57
2023/10/17 08:57:03;;;;;;;0.40;0.35;;;;;;;31.61;33.70;99943.81;7400177;19;20027;-57
2023/10/17 09:02:03;;;;;;;0.22;0.22;;;;;;;32.31;33.44;99936.81;7397221;19;20339;-58
2023/10/17 09:04:33;;;;;;;0.38;0.38;;;;;;;32.52;33.18;99930.94;7395007;19;20015;-58
2023/10/17 09:07:07;;;;;;;0.10;0.10;;;;;;;32.77;32.94;99919.47;7395171;19;20015;-58
2023/10/17 09:09:34;;;;;;;1.45;0.60;;;;;;;32.18;33.28;99923.75;7392738;19;20028;-58
2023/10/17 09:12:01;;;;;;;0.10;0.10;;;;;;;32.04;33.59;99922.88;7394733;19;20014;-58
2023/10/17 09:14:36;;;;;;;0.10;0.10;;;;;;;31.02;34.66;99925.53;7399069;19;20022;-57
2023/10/17 09:17:16;;;;;;;3.22;0.38;;;;;;;30.59;34.81;99921.13;7395552;19;20317;-57
2023/10/17 09:19:50;;;;;;;0.27;0.27;;;;;;;30.80;34.89;99918.25;7396599;19;20533;-58
2023/10/17 09:22:21;;;;;;;0.35;0.35;;;;;;;30.62;34.99;99922.78;7394288;19;20006;-57
2023/10/17 09:24:50;;;;;;;;;;;;;;;30.47;35.03;99911.69;7395451;19;20014;-58
2023/10/17 09:27:18;;;;;;;1.00;0.63;;;;;;;30.69;35.14;99910.31;7392357;19;19945;-58
2023/10/17 09:29:55;;;;;;;0.10;0.10;;;;;;;30.68;35.05;99900.19;7393612;19;20010;-57
2023/10/17 09:32:34;;;;;;;0.10;0.10;;;;;;;31.08;34.71;99893.56;7396693;19;20461;-57
2023/10/17 09:35:13;;;;;;;0.10;0.10;;;;;;;31.20;34.66;99897.22;7393877;19;20472;-58
2023/10/17 09:37:41;;;;;;;0.10;0.10;;;;;;;31.84;33.94;99889.13;7395409;19;20018;-58
2023/10/17 09:40:14;;;;;;;0.10;0.10;;;;;;;32.27;33.64;99896.19;7393874;19;20038;-58
2023/10/17 09:42:44;;;;;;;1.48;0.45;;;;;;;32.52;33.11;99887.69;7396929;19;20103;-58
2023/10/17 09:45:13;;;;;;;0.30;0.30;;;;;;;32.25;33.42;99896.06;7393557;19;20105;-57
2023/10/17 09:47:44;;;;;;;0.10;0.00;;;;;;;32.33;33.76;99892.94;7393395;19;20521;-57
2023/10/17 09:50:20;;;;;;;0.20;0.20;;;;;;;32.84;33.37;99891.72;7392620;19;20423;-57
2023/10/17 09:52:53;;;;;;;0.10;0.10;;;;;;;32.21;33.78;99887.16;7397172;19;20014;-57
2023/10/17 09:55:23;;;;;;;0.52;0.13;;;;;;;31.94;33.67;99895.53;7392963;19;20078;-58
2023/10/17 09:58:08;;;;;;;0.10;0.10;;;;;;;31.84;34.21;99889.13;7391917;19;20015;-58
2023/10/17 10:00:40;;;;;;;0.20;0.20;;;;;;;31.14;34.66;99891.81;7393484;19;20018;-58
2023/10/17 10:03:08;;;;;;;0.10;0.10;;;;;;;31.46;34.53;99886.69;7397396;19;20025;-58
2023/10/17 10:05:35;;;;;;;0.10;0.08;;;;;;;32.27;33.71;99890.41;7392512;19;20410;-58
2023/10/17 10:08:33;;;;;;;0.22;0.20;;;;;;;34.15;31.88;99879.00;7393786;19;20010;-58
2023/10/17 10:11:00;;;;;;;0.10;0.00;;;;;;;34.66;31.92;99886.06;7391493;19;20021;-58
2023/10/17 10:13:27;;;;;;;0.10;0.10;;;;;;;34.56;31.34;99871.09;7397388;19;20010;-57
2023/10/17 10:16:08;;;;;;;0.10;0.10;;;;;;;33.71;32.44;99865.75;7392401;19;20059;-58
2023/10/17 10:18:34;;;;;;;0.38;0.22;;;;;;;33.75;32.52;99865.97;7392024;19;20022;-58
2023/10/17 10:21:05;;;;;;;0.10;0.10;;;;;;;32.96;33.10;99868.59;7393469;19;20006;-58
2023/10/17 10:23:36;;;;;;;0.10;0.10;;;;;;;33.45;31.83;99861.34;7405227;19;20467;-57
2023/10/17 10:26:11;;;;;;;0.10;0.10;;;;;;;33.55;32.35;99856.91;7400976;19;20025;-57
2023/10/17 10:28:38;;;;;;;0.10;0.10;;;;;;;33.79;31.69;99856.75;7400162;19;20014;-57
2023/10/17 10:31:26;;;;;;;0.10;0.00;;;;;;;33.40;31.91;99856.72;7397238;19;21169;-57
2023/10/17 10:33:53;;;;;;;1.48;0.47;;;;;;;33.31;31.93;99852.63;7399558;19;20007;-57
2023/10/17 10:36:24;;;;;;;0.10;0.10;;;;;;;33.05;32.16;99851.13;7399759;19;20014;-57
2023/10/17 10:38:54;;;;;;;0.40;0.30;;;;;;;35.00;30.79;99844.41;7401132;19;20011;-57
2023/10/17 10:41:22;;;;;;;0.22;0.20;;;;;;;33.46;31.74;99846.28;7399287;19;20011;-57
2023/10/17 10:43:57;;;;;;;0.15;0.10;;;;;;;33.56;31.94;99837.47;7399632;19;20083;-56
2023/10/17 10:46:23;;;;;;;2.50;0.20;;;;;;;33.19;32.04;99848.31;7398862;19;20031;-56
2023/10/17 10:48:56;;;;;;;2.28;0.50;;;;;;;33.50;31.65;99828.44;7399298;19;20017;-55
2023/10/17 10:51:25;;;;;;;0.35;0.00;;;;;;;35.05;30.53;99833.78;7399762;19;20010;-54
2023/10/17 10:53:54;;;;;;;3.72;0.88;;;;;;;35.72;29.92;99835.59;7399057;19;20026;-54
2023/10/17 10:56:22;;;;;;;2.83;0.95;;;;;;;35.95;29.43;99845.31;7398737;19;20019;-54
2023/10/17 10:58:55;;;;;;;0.43;0.43;;;;;;;37.58;28.08;99826.19;7398661;19;20367;-54
2023/10/17 11:01:23;;;;;;;0.10;0.08;;;;;;;38.01;27.74;99816.94;7399390;19;20007;-55
2023/10/17 11:03:50;;;;;;;0.10;0.10;;;;;;;36.58;28.28;99817.72;7399350;19;20010;-56
2023/10/17 11:06:24;;;;;;;0.10;0.10;;;;;;;36.26;28.56;99810.47;7398640;19;20039;-56
2023/10/17 11:08:53;;;;;;;0.50;0.17;;;;;;;36.34;28.26;99811.59;7402293;19;20030;-56
2023/10/17 11:11:20;;;;;;;0.30;0.10;;;;;;;35.87;28.53;99807.25;7394439;19;20018;-56
2023/10/17 11:13:51;;;;;;;0.20;0.20;;;;;;;35.85;28.24;99795.56;7401076;19;20086;-56
2023/10/17 11:16:20;;;;;;;0.10;0.10;;;;;;;35.99;28.51;99793.34;7398965;19;20062;-55
2023/10/17 11:18:47;;;;;;;0.77;0.22;;;;;;;36.21;27.73;99794.31;7396993;19;20341;-54
2023/10/17 11:21:19;;;;;;;0.28;0.28;;;;;;;35.47;28.22;99785.84;7399490;19;20034;-55
2023/10/17 11:23:50;;;;;;;2.28;0.38;;;;;;;35.29;28.52;99777.03;7398699;19;20031;-54
2023/10/17 11:26:22;;;;;;;0.10;0.10;;;;;;;35.21;28.81;99775.91;7397253;19;20342;-56
2023/10/17 11:28:52;;;;;;;0.17;0.17;;;;;;;35.23;28.88;99768.06;7398005;19;20025;-56
2023/10/17 11:31:22;;;;;;;0.52;0.40;;;;;;;35.55;28.53;99760.91;7395030;19;20368;-57
2023/10/17 11:34:03;;;;;;;1.15;0.25;;;;;;;35.52;28.82;99753.50;7396038;19;20013;-56
2023/10/17 11:36:45;;;;;;;0.10;0.10;;;;;;;35.46;28.79;99761.16;7399497;19;20014;-56
2023/10/17 11:39:15;;;;;;;0.50;0.40;;;;;;;35.54;28.62;99759.41;7400930;19;20017;-56
2023/10/17 11:41:46;;;;;;;0.30;0.30;;;;;;;36.43;27.90;99761.22;7396556;19;20033;-56
2023/10/17 11:44:13;;;;;;;;;;;;;;;38.05;27.21;99745.13;7398320;19;20066;-56
2023/10/17 11:46:39;;;;;;;0.20;0.20;;;;;;;38.34;26.82;99753.44;7397396;19;19923;-57
2023/10/17 11:49:30;;;;;;;0.52;0.40;;;;;;;38.15;26.45;99754.19;7399595;19;20014;-57
2023/10/17 11:51:58;;;;;;;0.80;0.17;;;;;;;38.26;26.25;99753.16;7395840;19;20354;-56
2023/10/17 11:54:24;;;;;;;0.10;0.00;;;;;;;38.36;26.51;99747.69;7397051;19;20014;-59
2023/10/17 11:56:51;;;;;;;0.10;0.10;;;;;;;38.32;26.38;99743.88;7396069;19;20010;-56
2023/10/17 11:59:20;;;;;;;0.10;0.00;;;;;;;38.65;26.06;99740.66;7395719;19;20014;-56
2023/10/17 12:01:53;;;;;;;0.73;0.35;;;;;;;39.02;25.92;99730.94;7401004;19;20011;-58
2023/10/17 12:04:20;;;;;;;0.10;0.00;;;;;;;39.21;25.26;99721.34;7397337;19;20011;-58
2023/10/17 12:06:47;;;;;;;0.22;0.22;;;;;;;39.32;25.60;99717.31;7396830;19;20632;-56
2023/10/17 12:11:50;;;;;;;0.28;0.28;;;;;;;39.42;25.41;99714.69;7394696;19;20011;-55
2023/10/17 12:14:20;;;;;;;0.32;0.32;;;;;;;39.58;25.29;99703.53;7397479;19;20354;-56
2023/10/17 12:16:54;;;;;;;0.10;0.10;;;;;;;39.73;25.03;99696.66;7395468;19;20071;-55
2023/10/17 12:19:27;;;;;;;0.10;0.10;;;;;;;39.45;24.83;99707.50;7394451;19;20363;-55
2023/10/17 12:22:00;;;;;;;0.20;0.20;;;;;;;39.68;24.72;99700.91;7394870;19;20352;-55
2023/10/17 12:24:34;;;;;;;0.10;0.00;;;;;;;39.56;24.27;99700.56;7394209;19;20013;-55
2023/10/17 12:27:01;;;;;;;0.17;0.17;;;;;;;39.48;24.23;99699.56;7393836;19;20331;-56
2023/10/17 12:29:29;;;;;;;0.52;0.52;;;;;;;39.57;24.54;99684.53;7392707;19;20011;-56
2023/10/17 12:32:02;;;;;;;0.28;0.28;;;;;;;39.80;24.88;99689.59;7394599;19;20367;-56
2023/10/17 12:34:28;;;;;;;0.10;0.10;;;;;;;39.65;24.72;99689.88;7394392;19;20048;-57
2023/10/17 12:36:55;;;;;;;0.00;0.00;;;;;;;39.58;24.67;99702.78;7397331;19;20002;-55
2023/10/17 12:39:21;;;;;;;2.28;0.40;;;;;;;40.19;24.01;99694.28;7400744;19;20011;-56
2023/10/17 12:41:48;;;;;;;0.25;0.25;;;;;;;39.80;24.39;99691.75;7394695;19;20037;-56
2023/10/17 12:44:15;;;;;;;0.10;0.10;;;;;;;39.85;23.92;99690.44;7396083;19;20026;-57
2023/10/17 12:46:41;;;;;;;0.10;0.10;;;;;;;39.12;24.10;99681.72;7394285;19;20022;-56
2023/10/17 12:49:10;;;;;;;0.50;0.25;;;;;;;39.13;24.39;99689.06;7397459;19;20013;-56
2023/10/17 12:51:41;;;;;;;0.10;0.10;;;;;;;38.78;24.48;99681.41;7396056;19;20021;-55
2023/10/17 12:54:08;;;;;;;0.08;0.00;;;;;;;39.20;24.36;99676.88;7397594;19;20035;-55
2023/10/17 12:56:36;;;;;;;2.47;0.68;;;;;;;38.92;24.14;99663.63;7396124;19;20030;-55
2023/10/17 12:59:03;;;;;;;0.65;0.10;;;;;;;39.26;24.23;99658.84;7396633;19;20007;-54
2023/10/17 13:01:30;;;;;;;0.47;0.38;;;;;;;39.22;24.17;99655.81;7395846;19;20014;-54
2023/10/17 13:03:57;;;;;;;0.57;0.25;;;;;;;40.03;23.34;99656.66;7396503;19;20040;-54
2023/10/17 13:06:27;;;;;;;0.25;0.25;;;;;;;40.19;23.35;99638.09;7395392;19;20022;-53
2023/10/17 13:08:56;;;;;;;0.80;0.20;;;;;;;40.41;23.55;99647.41;7398870;19;20007;-53
2023/10/17 13:11:24;;;;;;;0.10;0.10;;;;;;;40.45;23.24;99650.44;7394187;19;20024;-53
2023/10/17 13:13:50;;;;;;;0.40;0.40;;;;;;;40.40;23.36;99654.66;7399583;19;20006;-55
2023/10/17 13:16:16;;;;;;;0.10;0.10;;;;;;;40.78;22.84;99652.69;7396677;19;20011;-55
2023/10/17 13:18:44;;;;;;;0.20;0.10;;;;;;;41.00;22.74;99649.53;7396116;19;20015;-55
2023/10/17 13:21:13;;;;;;;0.00;0.00;;;;;;;40.92;22.87;99635.47;7395456;19;20007;-55
2023/10/17 13:23:40;;;;;;;0.10;0.10;;;;;;;41.36;23.07;99642.31;7396130;19;20015;-55
2023/10/17 13:26:13;;;;;;;0.15;0.15;;;;;;;41.54;22.64;99636.78;7397728;19;20007;-55
2023/10/17 13:28:40;;;;;;;0.10;0.10;;;;;;;41.75;22.44;99626.25;7393449;19;20022;-55
2023/10/17 13:31:10;;;;;;;0.20;0.20;;;;;;;41.61;22.58;99622.31;7394689;19;20101;-55
2023/10/17 13:33:38;;;;;;;3.10;0.15;;;;;;;41.69;22.44;99623.22;7395186;19;20074;-55
2023/10/17 13:36:10;;;;;;;0.35;0.10;;;;;;;41.91;22.12;99608.25;7393212;19;20074;-55
2023/10/17 13:38:37;;;;;;;0.00;0.00;;;;;;;42.12;22.12;99607.91;7394458;19;20018;-56
2023/10/17 13:41:11;;;;;;;0.10;0.00;;;;;;;42.79;21.93;99595.03;7395561;19;20014;-55
2023/10/17 13:43:40;;;;;;;0.10;0.00;;;;;;;42.94;22.07;99596.72;7395480;19;20089;-56
2023/10/17 13:46:14;;;;;;;9.55;0.55;;;;;;;42.90;21.91;99590.81;7395811;19;20006;-55
2023/10/17 13:48:48;;;;;;;0.10;0.10;;;;;;;42.80;21.78;99605.28;7394308;19;20351;-55
2023/10/17 13:51:16;;;;;;;0.10;0.10;;;;;;;42.60;21.90;99596.22;7393656;19;20351;-55
2023/10/17 13:53:46;;;;;;;1.23;0.15;;;;;;;42.63;21.99;99594.78;7392895;19;20029;-55
2023/10/17 13:56:13;;;;;;;0.23;0.23;;;;;;;42.57;21.85;99594.72;7394001;19;20030;-55
2023/10/17 13:58:41;;;;;;;6.63;0.30;;;;;;;42.48;21.98;99590.19;7393780;19;20014;-55
2023/10/17 14:03:55;;;;;;;0.85;0.38;;;;;;;42.40;21.44;99592.22;7395361;19;20014;-55
2023/10/17 14:06:22;;;;;;;0.10;0.10;;;;;;;42.41;21.19;99576.88;7393507;19;20037;-55
2023/10/17 14:08:50;;;;;;;0.35;0.35;;;;;;;42.60;21.64;99584.50;7393526;19;20458;-55
2023/10/17 14:11:19;;;;;;;0.10;0.05;;;;;;;42.00;21.64;99587.19;7392545;19;20015;-55
2023/10/17 14:13:46;;;;;;;0.20;0.20;;;;;;;41.47;21.89;99579.66;7397363;19;20053;-55
2023/10/17 14:16:13;;;;;;;3.63;0.22;;;;;;;41.20;22.21;99592.25;7392176;19;20429;-55
2023/10/17 14:18:44;;;;;;;4.15;0.20;;;;;;;41.12;22.08;99579.66;7393196;19;20083;-55
2023/10/17 14:21:34;;;;;;;0.10;0.10;;;;;;;41.21;22.32;99584.22;7391266;19;20070;-57
2023/10/17 14:24:20;;;;;;;0.20;0.20;;;;;;;40.72;22.09;99597.03;7392665;19;20423;-57
2023/10/17 14:26:48;;;;;;;0.10;0.00;;;;;;;40.51;22.31;99583.41;7393953;19;20476;-57
2023/10/17 14:29:14;;;;;;;0.10;0.10;;;;;;;40.44;22.29;99578.88;7392095;19;20010;-57